Kezdőlap
METAR-TAF:

METAR-TAF

Repülőterek :

Zeltwegi katonai repülőtér

Zeltweg, Ausztria

földrajzi szélesség: 47-12N, földrajzi hosszúság: 014-45E, magasság: 677 m

Jelenlegi meteorológiai megfigyelések

A jelentés 2 órával és 39 perccel ezelõtt készült, 20:50 UTC
Déli szél 3 kt, dél-délkeleti és nyugat-délnyugati között változik
Hőmérséklet 21°C
Páratartalom 78%
Légköri nyomás 1013 hPa
Látótávolság 10 km, vagy több
Kevés felhő 6000 lábon
Szórványos felhőzet 30000 lábon

METAR: LOXZ 212050Z 18003KT 150V240 9999 FEW060 SCT300 21/17 Q1013

Idő: 01:29 (23:29 UTC)

Előrejelzés

A jelentés 12 órával és 14 perccel ezelõtt készült, 11:15 UTC
Az előrejelzés 21-én 12 óra UTC és 21-én 21 óra UTC között érvényes
Különbözõ irányokból fújó szél 3 kt
Látótávolság 10 km, vagy több
Kevés felhő 6000 lábon

TAF: LOXZ 211115Z 2112/2121 VRB03KT 9999 FEW060

Meteorológiai megfigyelések és előrejelzések több, mint 4000 repülőtéren (METAR és TAF jelentéseket).

A térképen piros és sárga pontok jelzik az elérhető meteorológiai állomásokat.

Mozgassa az egeret a pont fölött, hogy megjelenjen az állomás neve.

Azután kattintson az időjárási megfigyelések és előrejelzések megtekintéséhez.

A térkép megváltoztatása: kattintson a fekete keresztel jelölt zöld gombra ráközelítéshez, a vonallal jelölt zöld gombra távolításhoz, vagy a zöld nyilakra a szomszédos térképek eléréséhez.


METAR-TAF: